Vega Emtoli — LAQY7 — position and weather

sailwx.info

Track history (hours):
 
Tides and Currents Weather Stations Pressure Air Temp Water Temp Dewpoint Dewpoint Depression Visibility Wind Speed Wind Dir Waves Ship Positions

Vega Emtoli

Last reported at 2014-Sep-18 05:32 UTC. Time now 2014-Oct-23 06:35 UTC.
Position S 23°28' W 041°02'.
Warning: this ship's position is 35 days out of date.

Length 59 m; draft 4.5 m.

Type: Pollution control. MMSI: 258026000.

Date/timePositionNaut miles runAvg speedWind from/ knotsBaromVisibWave heightAir tempDewpointWater temp
2014-Sep-18 05:32S 23°28' W 041°02'0 0.5
2014-Sep-18 04:33S 23°28' W 041°02'2 0.5
2014-Sep-18 01:21S 23°30' W 041°02'2 2.4
2014-Sep-18 00:28S 23°28' W 041°00'2 2.2
2014-Sep-17 23:32S 23°27' W 040°59'1 0.5
2014-Sep-17 22:33S 23°27' W 040°59'1 0.6
2014-Sep-17 21:33S 23°28' W 040°60'1 0.5
2014-Sep-17 20:09S 23°28' W 041°00'0 0.6
2014-Sep-17 19:25S 23°28' W 041°01'0 0.5
2014-Sep-17 18:33S 23°28' W 041°01'1 0.9
2014-Sep-17 17:33S 23°27' W 041°02'2 1.4
2014-Sep-17 16:09S 23°27' W 041°04'0 0.4
2014-Sep-17 15:33S 23°27' W 041°04'0 0.5
2014-Sep-17 14:33S 23°28' W 041°04'1 0.5
2014-Sep-17 13:31S 23°28' W 041°04'1 1.0
2014-Sep-17 12:27S 23°27' W 041°04'2 1.9
2014-Sep-17 11:33S 23°26' W 041°02'0 0.4
2014-Sep-17 10:33S 23°26' W 041°02'1 0.5
2014-Sep-17 09:33S 23°27' W 041°02'1 0.6
2014-Sep-17 08:33S 23°27' W 041°02'1 0.7
2014-Sep-17 07:34S 23°28' W 041°02'1 0.8
2014-Sep-17 06:31S 23°29' W 041°02'1 0.9
2014-Sep-17 05:33S 23°30' W 041°02'1 1.0
2014-Sep-17 04:33S 23°31' W 041°02'2 0.8
2014-Sep-17 01:33S 23°28' W 041°01'2 2.2
2014-Sep-17 00:33S 23°27' W 040°59'1 0.5
2014-Sep-16 23:31S 23°28' W 040°58'1 0.8
2014-Sep-16 22:33S 23°28' W 040°59'1 0.8
2014-Sep-16 21:33S 23°29' W 040°59'0 0.3
2014-Sep-16 20:33S 23°29' W 040°60'0 0.3
2014-Sep-16 19:29S 23°29' W 040°60'0 0.1
2014-Sep-16 18:32S 23°29' W 040°60'0 0.1
2014-Sep-16 17:15S 23°29' W 040°59'0 0.3
2014-Sep-16 16:33S 23°28' W 040°59'1 0.5
2014-Sep-16 15:26S 23°28' W 040°59'0 0.1
2014-Sep-16 14:33S 23°28' W 040°59'1 0.7
2014-Sep-16 13:33S 23°29' W 040°59'1 0.6
2014-Sep-16 12:31S 23°29' W 040°59'1 0.5
2014-Sep-16 11:27S 23°30' W 040°60'0 0.4
2014-Sep-16 10:29S 23°30' W 040°60'2 0.3
2014-Sep-16 03:04S 23°32' W 041°02'7 1.0
2014-Sep-15 20:08S 23°25' W 041°00'5 9.2
2014-Sep-15 19:33S 23°20' W 040°58'9 9.1
2014-Sep-15 18:33S 23°12' W 040°54'9 9.0
2014-Sep-15 17:33S 23°04' W 040°50'  
2014-Sep-12 05:12S 23°03' W 040°45'3 3.6
2014-Sep-12 04:21S 23°01' W 040°43'  
Track history (hours):
 
Tides and Currents Weather Stations Pressure Air Temp Water Temp Dewpoint Dewpoint Depression Visibility Wind Speed Wind Dir Waves Ship Positions

Vega Emtoli

Last reported at 2014-Sep-18 05:32 UTC. Time now 2014-Oct-23 06:35 UTC.
Position S 23°28' W 041°02'.
Warning: this ship's position is 35 days out of date.

Length 59 m; draft 4.5 m.

Type: Pollution control. MMSI: 258026000.

Date/timePositionNaut miles runAvg speedWind from/ knotsBaromVisibWave heightAir tempDewpointWater temp
2014-Sep-18 05:32S 23°28' W 041°02'0 0.5
2014-Sep-18 04:33S 23°28' W 041°02'2 0.5
2014-Sep-18 01:21S 23°30' W 041°02'2 2.4
2014-Sep-18 00:28S 23°28' W 041°00'2 2.2
2014-Sep-17 23:32S 23°27' W 040°59'1 0.5
2014-Sep-17 22:33S 23°27' W 040°59'1 0.6
2014-Sep-17 21:33S 23°28' W 040°60'1 0.5
2014-Sep-17 20:09S 23°28' W 041°00'0 0.6
2014-Sep-17 19:25S 23°28' W 041°01'0 0.5
2014-Sep-17 18:33S 23°28' W 041°01'1 0.9
2014-Sep-17 17:33S 23°27' W 041°02'2 1.4
2014-Sep-17 16:09S 23°27' W 041°04'0 0.4
2014-Sep-17 15:33S 23°27' W 041°04'0 0.5
2014-Sep-17 14:33S 23°28' W 041°04'1 0.5
2014-Sep-17 13:31S 23°28' W 041°04'1 1.0
2014-Sep-17 12:27S 23°27' W 041°04'2 1.9
2014-Sep-17 11:33S 23°26' W 041°02'0 0.4
2014-Sep-17 10:33S 23°26' W 041°02'1 0.5
2014-Sep-17 09:33S 23°27' W 041°02'1 0.6
2014-Sep-17 08:33S 23°27' W 041°02'1 0.7
2014-Sep-17 07:34S 23°28' W 041°02'1 0.8
2014-Sep-17 06:31S 23°29' W 041°02'1 0.9
2014-Sep-17 05:33S 23°30' W 041°02'1 1.0
2014-Sep-17 04:33S 23°31' W 041°02'2 0.8
2014-Sep-17 01:33S 23°28' W 041°01'2 2.2
2014-Sep-17 00:33S 23°27' W 040°59'1 0.5
2014-Sep-16 23:31S 23°28' W 040°58'1 0.8
2014-Sep-16 22:33S 23°28' W 040°59'1 0.8
2014-Sep-16 21:33S 23°29' W 040°59'0 0.3
2014-Sep-16 20:33S 23°29' W 040°60'0 0.3
2014-Sep-16 19:29S 23°29' W 040°60'0 0.1
2014-Sep-16 18:32S 23°29' W 040°60'0 0.1
2014-Sep-16 17:15S 23°29' W 040°59'0 0.3
2014-Sep-16 16:33S 23°28' W 040°59'1 0.5
2014-Sep-16 15:26S 23°28' W 040°59'0 0.1
2014-Sep-16 14:33S 23°28' W 040°59'1 0.7
2014-Sep-16 13:33S 23°29' W 040°59'1 0.6
2014-Sep-16 12:31S 23°29' W 040°59'1 0.5
2014-Sep-16 11:27S 23°30' W 040°60'0 0.4
2014-Sep-16 10:29S 23°30' W 040°60'2 0.3
2014-Sep-16 03:04S 23°32' W 041°02'7 1.0
2014-Sep-15 20:08S 23°25' W 041°00'5 9.2
2014-Sep-15 19:33S 23°20' W 040°58'9 9.1
2014-Sep-15 18:33S 23°12' W 040°54'9 9.0
2014-Sep-15 17:33S 23°04' W 040°50'  
2014-Sep-12 05:12S 23°03' W 040°45'3 3.6
2014-Sep-12 04:21S 23°01' W 040°43'  

Dump ship's entire track history